Time;durP1;ratioP1;P1;durP2;ratioP2;P2;SDS_P1;SDS_P2;PMS_P1;PMS_P2;Temp;Humidity;BMP_temperature;BMP_pressure;BME280_temperature;BME280_humidity;BME280_pressure;Samples;Min_cycle;Max_cycle;Signal;HPM_P1;HPM_P2
2020/12/06 00:00:23;;;;;;;;;;;;;;;;;;5014547;28;20280;-67
2020/12/06 00:02:49;;;;;;;;;;;;;;;;;;5014720;28;19910;-68
2020/12/06 00:05:15;;;;;;;;;;;;;;;;;;5014894;28;20357;-68
2020/12/06 00:07:40;;;;;;;;;;;;;;;;;;5018728;28;20359;-67
2020/12/06 00:10:06;;;;;;;;;;;;;;;;;;5031151;28;19956;-68
2020/12/06 00:12:32;;;;;;;;;;;;;;;;;;5015373;28;20040;-68
2020/12/06 00:14:58;;;;;;;;;;;;;;;;;;5014083;28;20017;-68
2020/12/06 00:17:24;;;;;;;;;;;;;;;;;;5014310;28;19941;-68
2020/12/06 00:19:50;;;;;;;;;;;;;;;;;;5014729;28;19945;-68
2020/12/06 00:22:16;;;;;;;;;;;;;;;;;;5014435;28;19936;-68
2020/12/06 00:24:42;;;;;;;;;;;;;;;;;;5014272;28;19910;-69
2020/12/06 00:27:08;;;;;;;;;;;;;;;;;;5015459;28;19925;-68
2020/12/06 00:29:34;;;;;;;;;;;;;;;;;;5018016;28;20285;-68
2020/12/06 00:32:00;;;;;;;;;;;;;;;;;;5032762;28;19975;-68
2020/12/06 00:34:26;;;;;;;;;;;;;;;;;;5033353;28;20016;-68
2020/12/06 00:36:52;;;;;;;;;;;;;;;;;;5032930;28;19972;-70
2020/12/06 00:39:18;;;;;;;;;;;;;;;;;;5014292;28;19913;-71
2020/12/06 00:41:44;;;;;;;;;;;;;;;;;;5015026;28;19910;-68
2020/12/06 00:44:10;;;;;;;;;;;;;;;;;;5015586;28;19910;-68
2020/12/06 00:46:36;;;;;;;;;;;;;;;;;;5029196;28;19909;-68
2020/12/06 00:49:02;;;;;;;;;;;;;;;;;;5013928;28;19909;-68
2020/12/06 00:51:28;;;;;;;;;;;;;;;;;;5013925;28;19952;-69
2020/12/06 00:53:53;;;;;;;;;;;;;;;;;;5014042;28;20017;-68
2020/12/06 00:56:19;;;;;;;;;;;;;;;;;;5014227;28;19916;-68
2020/12/06 00:58:45;;;;;;;;;;;;;;;;;;5013499;28;20285;-70
2020/12/06 01:01:11;;;;;;;;;;;;;;;;;;5033062;28;20391;-68
2020/12/06 01:03:38;;;;;;;;;;;;;;;;;;5048255;28;19913;-70
2020/12/06 01:06:04;;;;;;;;;;;;;;;;;;5032635;28;20385;-68
2020/12/06 01:08:30;;;;;;;;;;;;;;;;;;5032450;28;19959;-70
2020/12/06 01:10:56;;;;;;;;;;;;;;;;;;5032789;28;19996;-70
2020/12/06 01:13:22;;;;;;;;;;;;;;;;;;5021132;28;20308;-69
2020/12/06 01:15:48;;;;;;;;;;;;;;;;;;5013778;28;19913;-69
2020/12/06 01:18:14;;;;;;;;;;;;;;;;;;5013621;28;19929;-70
2020/12/06 01:20:40;;;;;;;;;;;;;;;;;;5013053;28;19913;-70
2020/12/06 01:23:05;;;;;;;;;;;;;;;;;;5013450;28;20483;-70
2020/12/06 01:25:31;;;;;;;;;;;;;;;;;;5013561;28;20017;-70
2020/12/06 01:27:57;;;;;;;;;;;;;;;;;;5014063;28;19921;-70
2020/12/06 01:30:23;;;;;;;;;;;;;;;;;;5015702;28;20866;-70
2020/12/06 01:32:49;;;;;;;;;;;;;;;;;;5015791;28;19956;-70
2020/12/06 01:35:15;;;;;;;;;;;;;;;;;;5033022;28;19976;-71
2020/12/06 01:37:41;;;;;;;;;;;;;;;;;;5017335;28;19959;-70
2020/12/06 01:40:07;;;;;;;;;;;;;;;;;;5017253;28;20198;-70
2020/12/06 01:42:33;;;;;;;;;;;;;;;;;;5012149;28;19909;-70
2020/12/06 01:44:59;;;;;;;;;;;;;;;;;;5013006;28;19910;-70
2020/12/06 01:47:24;;;;;;;;;;;;;;;;;;5012814;28;19945;-70
2020/12/06 01:49:50;;;;;;;;;;;;;;;;;;5012649;28;20012;-70
2020/12/06 01:52:16;;;;;;;;;;;;;;;;;;5012814;28;19979;-70
2020/12/06 01:54:42;;;;;;;;;;;;;;;;;;5019357;28;19909;-70
2020/12/06 01:57:08;;;;;;;;;;;;;;;;;;5018904;28;19960;-70
2020/12/06 01:59:34;;;;;;;;;;;;;;;;;;5031956;28;20004;-70
2020/12/06 02:02:00;;;;;;;;;;;;;;;;;;5046971;28;19909;-70
2020/12/06 02:04:26;;;;;;;;;;;;;;;;;;5031474;28;20349;-70
2020/12/06 02:06:52;;;;;;;;;;;;;;;;;;5034421;28;20394;-70
2020/12/06 02:09:18;;;;;;;;;;;;;;;;;;5012423;28;19921;-70
2020/12/06 02:11:44;;;;;;;;;;;;;;;;;;5011662;28;20385;-70
2020/12/06 02:14:09;;;;;;;;;;;;;;;;;;5012426;28;19909;-71
2020/12/06 02:16:35;;;;;;;;;;;;;;;;;;5012524;28;19910;-70
2020/12/06 02:19:01;;;;;;;;;;;;;;;;;;5012173;28;19963;-70
2020/12/06 02:21:27;;;;;;;;;;;;;;;;;;5027503;28;20369;-70
2020/12/06 02:23:53;;;;;;;;;;;;;;;;;;5012285;28;19933;-70
2020/12/06 02:26:19;;;;;;;;;;;;;;;;;;5011968;28;19917;-69
2020/12/06 02:28:45;;;;;;;;;;;;;;;;;;5012160;28;20424;-70
2020/12/06 02:31:11;;;;;;;;;;;;;;;;;;5012305;28;19909;-70
2020/12/06 02:33:37;;;;;;;;;;;;;;;;;;5011944;28;19967;-70
2020/12/06 02:36:03;;;;;;;;;;;;;;;;;;5012305;28;19917;-70
2020/12/06 02:38:29;;;;;;;;;;;;;;;;;;5012863;28;19941;-70
2020/12/06 02:40:55;;;;;;;;;;;;;;;;;;5016137;28;19909;-70
2020/12/06 02:43:21;;;;;;;;;;;;;;;;;;5012560;28;19943;-70
2020/12/06 02:45:47;;;;;;;;;;;;;;;;;;5032273;28;20000;-70
2020/12/06 02:48:12;;;;;;;;;;;;;;;;;;5025168;28;20028;-70
2020/12/06 02:50:38;;;;;;;;;;;;;;;;;;5024537;28;19992;-70
2020/12/06 02:53:06;;;;;;;;;;;;;;;;;;5031215;28;20012;-69
2020/12/06 02:55:32;;;;;;;;;;;;;;;;;;5037654;28;19984;-70
2020/12/06 02:57:58;;;;;;;;;;;;;;;;;;5037129;28;20028;-70
2020/12/06 03:00:24;;;;;;;;;;;;;;;;;;5037393;28;20059;-69
2020/12/06 03:02:50;;;;;;;;;;;;;;;;;;5037249;28;19970;-70
2020/12/06 03:05:16;;;;;;;;;;;;;;;;;;5037215;28;19954;-70
2020/12/06 03:07:41;;;;;;;;;;;;;;;;;;5052387;28;19996;-70
2020/12/06 03:10:07;;;;;;;;;;;;;;;;;;5019108;28;20400;-69
2020/12/06 03:12:33;;;;;;;;;;;;;;;;;;5018152;28;20008;-69
2020/12/06 03:14:59;;;;;;;;;;;;;;;;;;5018200;28;19961;-70
2020/12/06 03:17:25;;;;;;;;;;;;;;;;;;5018173;28;19914;-69
2020/12/06 03:19:51;;;;;;;;;;;;;;;;;;5018424;28;20031;-68
2020/12/06 03:22:17;;;;;;;;;;;;;;;;;;5018418;28;20362;-70
2020/12/06 03:24:43;;;;;;;;;;;;;;;;;;5017991;28;19956;-71
2020/12/06 03:27:09;;;;;;;;;;;;;;;;;;5017973;28;19972;-70
2020/12/06 03:29:35;;;;;;;;;;;;;;;;;;5032968;28;19998;-68
2020/12/06 03:32:00;;;;;;;;;;;;;;;;;;5017873;28;20425;-69
2020/12/06 03:34:26;;;;;;;;;;;;;;;;;;5018064;28;19996;-70
2020/12/06 03:36:52;;;;;;;;;;;;;;;;;;5018049;28;20004;-70
2020/12/06 03:39:18;;;;;;;;;;;;;;;;;;5017691;28;20291;-70
2020/12/06 03:41:44;;;;;;;;;;;;;;;;;;5021218;28;20000;-70
2020/12/06 03:44:10;;;;;;;;;;;;;;;;;;5017602;28;20008;-69
2020/12/06 03:46:36;;;;;;;;;;;;;;;;;;5017841;28;19956;-70
2020/12/06 03:49:02;;;;;;;;;;;;;;;;;;5017768;28;20016;-70
2020/12/06 03:51:28;;;;;;;;;;;;;;;;;;5017922;28;20593;-70
2020/12/06 03:53:53;;;;;;;;;;;;;;;;;;5018160;28;19967;-70
2020/12/06 03:56:19;;;;;;;;;;;;;;;;;;5017764;28;19909;-70
2020/12/06 03:58:45;;;;;;;;;;;;;;;;;;5017492;28;20317;-70
2020/12/06 04:01:11;;;;;;;;;;;;;;;;;;5032498;28;19910;-70
2020/12/06 04:03:37;;;;;;;;;;;;;;;;;;5021820;28;20420;-70
2020/12/06 04:06:03;;;;;;;;;;;;;;;;;;5029827;28;19932;-70
2020/12/06 04:08:29;;;;;;;;;;;;;;;;;;5014534;28;19913;-70
2020/12/06 04:10:55;;;;;;;;;;;;;;;;;;5021343;28;19944;-70
2020/12/06 04:13:21;;;;;;;;;;;;;;;;;;5014405;28;19987;-70
2020/12/06 04:15:47;;;;;;;;;;;;;;;;;;5014456;28;19914;-68
2020/12/06 04:18:13;;;;;;;;;;;;;;;;;;5014401;28;19910;-68
2020/12/06 04:20:38;;;;;;;;;;;;;;;;;;5014506;28;19945;-68
2020/12/06 04:23:04;;;;;;;;;;;;;;;;;;5014608;28;19951;-70
2020/12/06 04:25:30;;;;;;;;;;;;;;;;;;5014667;28;19957;-70
2020/12/06 04:27:56;;;;;;;;;;;;;;;;;;5033047;28;19956;-71
2020/12/06 04:30:22;;;;;;;;;;;;;;;;;;5033773;28;19975;-70
2020/12/06 04:32:48;;;;;;;;;;;;;;;;;;5033100;28;19965;-70
2020/12/06 04:35:14;;;;;;;;;;;;;;;;;;5033084;28;20289;-70
2020/12/06 04:37:40;;;;;;;;;;;;;;;;;;5033009;28;19910;-69
2020/12/06 04:40:06;;;;;;;;;;;;;;;;;;5027593;28;19949;-69
2020/12/06 04:42:32;;;;;;;;;;;;;;;;;;5013640;28;20002;-70
2020/12/06 04:44:57;;;;;;;;;;;;;;;;;;5015070;28;19941;-69
2020/12/06 04:47:23;;;;;;;;;;;;;;;;;;5014066;28;19961;-70
2020/12/06 04:49:49;;;;;;;;;;;;;;;;;;5013911;28;19954;-70
2020/12/06 04:52:15;;;;;;;;;;;;;;;;;;5013901;28;20048;-69
2020/12/06 04:54:42;;;;;;;;;;;;;;;;;;5013616;28;19910;-69
2020/12/06 04:57:07;;;;;;;;;;;;;;;;;;5013744;28;20464;-68
2020/12/06 04:59:34;;;;;;;;;;;;;;;;;;5013657;28;20087;-68
2020/12/06 05:02:03;;;;;;;;;;;;;;;;;;5014319;28;19910;-70
2020/12/06 05:04:29;;;;;;;;;;;;;;;;;;5014029;28;19956;-69
2020/12/06 05:06:55;;;;;;;;;;;;;;;;;;5013225;28;20423;-70
2020/12/06 05:09:21;;;;;;;;;;;;;;;;;;5013299;28;19941;-69
2020/12/06 05:11:47;;;;;;;;;;;;;;;;;;5013461;28;20000;-70
2020/12/06 05:14:13;;;;;;;;;;;;;;;;;;5015147;28;20357;-69
2020/12/06 05:16:39;;;;;;;;;;;;;;;;;;5032257;28;19909;-69
2020/12/06 05:19:05;;;;;;;;;;;;;;;;;;5032185;28;19948;-69
2020/12/06 05:21:31;;;;;;;;;;;;;;;;;;5032020;28;19979;-69
2020/12/06 05:23:56;;;;;;;;;;;;;;;;;;5047639;28;20043;-70
2020/12/06 05:26:22;;;;;;;;;;;;;;;;;;5032197;28;20480;-70
2020/12/06 05:28:48;;;;;;;;;;;;;;;;;;5031993;28;20003;-70
2020/12/06 05:31:14;;;;;;;;;;;;;;;;;;5037583;22;19925;-79
2020/12/06 05:33:40;;;;;;;;;;;;;;;;;;5029121;28;20362;-78
2020/12/06 05:36:06;;;;;;;;;;;;;;;;;;5033741;28;19916;-78
2020/12/06 05:38:32;;;;;;;;;;;;;;;;;;5034730;28;19909;-79
2020/12/06 05:40:58;;;;;;;;;;;;;;;;;;5028539;28;19913;-79
2020/12/06 05:43:24;;;;;;;;;;;;;;;;;;5021089;28;19910;-79
2020/12/06 05:45:50;;;;;;;;;;;;;;;;;;5029992;28;20322;-79
2020/12/06 05:48:15;;;;;;;;;;;;;;;;;;5028732;28;19909;-80
2020/12/06 05:50:41;;;;;;;;;;;;;;;;;;5052549;28;19909;-79
2020/12/06 05:53:07;;;;;;;;;;;;;;;;;;5068586;28;19917;-77
2020/12/06 05:55:33;;;;;;;;;;;;;;;;;;5038278;28;19909;-77
2020/12/06 05:57:59;;;;;;;;;;;;;;;;;;5037659;28;19897;-77
2020/12/06 06:00:25;;;;;;;;;;;;;;;;;;5062265;28;19901;-76
2020/12/06 06:02:51;;;;;;;;;;;;;;;;;;5056484;28;19897;-78
2020/12/06 06:05:17;;;;;;;;;;;;;;;;;;5057233;28;19913;-79
2020/12/06 06:07:43;;;;;;;;;;;;;;;;;;5054677;28;19897;-78
2020/12/06 06:10:09;;;;;;;;;;;;;;;;;;5039980;28;19905;-78
2020/12/06 06:12:35;;;;;;;;;;;;;;;;;;5059954;28;19905;-78
2020/12/06 06:15:01;;;;;;;;;;;;;;;;;;5055383;28;19984;-78
2020/12/06 06:17:27;;;;;;;;;;;;;;;;;;5070558;28;19912;-78
2020/12/06 06:19:52;;;;;;;;;;;;;;;;;;5035652;28;19909;-77
2020/12/06 06:22:18;;;;;;;;;;;;;;;;;;5020456;28;19917;-79
2020/12/06 06:24:44;;;;;;;;;;;;;;;;;;5033442;28;19909;-78
2020/12/06 06:27:10;;;;;;;;;;;;;;;;;;5022374;28;19910;-78
2020/12/06 06:29:36;;;;;;;;;;;;;;;;;;5030282;28;19933;-79
2020/12/06 06:32:02;;;;;;;;;;;;;;;;;;5034230;28;19917;-79
2020/12/06 06:34:28;;;;;;;;;;;;;;;;;;5031551;28;19914;-78
2020/12/06 06:36:54;;;;;;;;;;;;;;;;;;5018772;28;19909;-78
2020/12/06 06:39:20;;;;;;;;;;;;;;;;;;5022771;28;20434;-79
2020/12/06 06:41:46;;;;;;;;;;;;;;;;;;5028330;28;19909;-79
2020/12/06 06:44:11;;;;;;;;;;;;;;;;;;5051189;28;19917;-79
2020/12/06 06:46:37;;;;;;;;;;;;;;;;;;5031685;28;19914;-77
2020/12/06 06:49:03;;;;;;;;;;;;;;;;;;5031270;28;19910;-78
2020/12/06 06:51:29;;;;;;;;;;;;;;;;;;5037525;28;19916;-78
2020/12/06 06:53:55;;;;;;;;;;;;;;;;;;5050266;28;19920;-79
2020/12/06 06:56:21;;;;;;;;;;;;;;;;;;5023700;28;19910;-78
2020/12/06 06:58:47;;;;;;;;;;;;;;;;;;5042781;28;19985;-77
2020/12/06 07:01:13;;;;;;;;;;;;;;;;;;5041520;28;20367;-78
2020/12/06 07:03:39;;;;;;;;;;;;;;;;;;5027265;28;19917;-78
2020/12/06 07:06:05;;;;;;;;;;;;;;;;;;5044167;28;19917;-78
2020/12/06 07:08:31;;;;;;;;;;;;;;;;;;5021330;28;19940;-78
2020/12/06 07:10:57;;;;;;;;;;;;;;;;;;5017936;28;19926;-78
2020/12/06 07:13:23;;;;;;;;;;;;;;;;;;5043131;28;19981;-77
2020/12/06 07:15:49;;;;;;;;;;;;;;;;;;5048799;28;19956;-77
2020/12/06 07:18:15;;;;;;;;;;;;;;;;;;5027752;28;19917;-77
2020/12/06 07:20:40;;;;;;;;;;;;;;;;;;5033997;28;19913;-77
2020/12/06 07:23:06;;;;;;;;;;;;;;;;;;5048840;28;19914;-78
2020/12/06 07:25:32;;;;;;;;;;;;;;;;;;5034989;28;20383;-77
2020/12/06 07:27:58;;;;;;;;;;;;;;;;;;5034151;28;19909;-77
2020/12/06 07:30:24;;;;;;;;;;;;;;;;;;5036689;28;19910;-78
2020/12/06 07:32:50;;;;;;;;;;;;;;;;;;5051205;28;20387;-78
2020/12/06 07:35:16;;;;;;;;;;;;;;;;;;5031938;28;19909;-78
2020/12/06 07:37:43;;;;;;;;;;;;;;;;;;5042290;28;19921;-79
2020/12/06 07:40:09;;;;;;;;;;;;;;;;;;5035286;28;19921;-77
2020/12/06 07:42:35;;;;;;;;;;;;;;;;;;5049877;28;19910;-79
2020/12/06 07:45:01;;;;;;;;;;;;;;;;;;5036084;28;19897;-76
2020/12/06 07:47:26;;;;;;;;;;;;;;;;;;5053760;28;19956;-76
2020/12/06 07:49:52;;;;;;;;;;;;;;;;;;5042579;28;20360;-78
2020/12/06 07:52:18;;;;;;;;;;;;;;;;;;5021732;28;19918;-79
2020/12/06 07:54:44;;;;;;;;;;;;;;;;;;5024698;28;19940;-79
2020/12/06 07:57:10;;;;;;;;;;;;;;;;;;5040901;28;19913;-78
2020/12/06 07:59:36;;;;;;;;;;;;;;;;;;5038984;28;19909;-78
2020/12/06 08:02:04;;;;;;;;;;;;;;;;;;5017249;28;19914;-79
2020/12/06 08:04:30;;;;;;;;;;;;;;;;;;5018336;28;20347;-79
2020/12/06 08:06:56;;;;;;;;;;;;;;;;;;5043669;28;19922;-79
2020/12/06 08:09:22;;;;;;;;;;;;;;;;;;5036390;28;19913;-78
2020/12/06 08:11:48;;;;;;;;;;;;;;;;;;5032557;28;19914;-79
2020/12/06 08:14:14;;;;;;;;;;;;;;;;;;5035413;28;19925;-79
2020/12/06 08:16:40;;;;;;;;;;;;;;;;;;5019882;28;19910;-79
2020/12/06 08:19:05;;;;;;;;;;;;;;;;;;5020340;28;19956;-79
2020/12/06 08:21:31;;;;;;;;;;;;;;;;;;5039293;28;19916;-78
2020/12/06 08:23:57;;;;;;;;;;;;;;;;;;5028696;28;19913;-79
2020/12/06 08:26:23;;;;;;;;;;;;;;;;;;5031129;28;19916;-80
2020/12/06 08:28:49;;;;;;;;;;;;;;;;;;5037829;28;19909;-79
2020/12/06 08:31:15;;;;;;;;;;;;;;;;;;5028113;28;19901;-78
2020/12/06 08:33:41;;;;;;;;;;;;;;;;;;5038696;28;20537;-77
2020/12/06 08:36:07;;;;;;;;;;;;;;;;;;5024156;28;19952;-77
2020/12/06 08:38:33;;;;;;;;;;;;;;;;;;5022916;28;19917;-79
2020/12/06 08:40:59;;;;;;;;;;;;;;;;;;5023595;28;19917;-78
2020/12/06 08:43:25;;;;;;;;;;;;;;;;;;5019730;28;19913;-79
2020/12/06 08:45:51;;;;;;;;;;;;;;;;;;5035681;28;19955;-78
2020/12/06 08:48:17;;;;;;;;;;;;;;;;;;5021030;28;19963;-78
2020/12/06 08:50:43;;;;;;;;;;;;;;;;;;5037920;28;19974;-78
2020/12/06 08:53:09;;;;;;;;;;;;;;;;;;5052486;28;20194;-79
2020/12/06 08:55:34;;;;;;;;;;;;;;;;;;5039494;28;19913;-76
2020/12/06 08:58:00;;;;;;;;;;;;;;;;;;5028037;28;19909;-77
2020/12/06 09:00:26;;;;;;;;;;;;;;;;;;5035469;28;20260;-79
2020/12/06 09:02:52;;;;;;;;;;;;;;;;;;5054149;28;19916;-78
2020/12/06 09:05:18;;;;;;;;;;;;;;;;;;5050379;28;19909;-76
2020/12/06 09:07:44;;;;;;;;;;;;;;;;;;5017926;28;19909;-77
2020/12/06 09:10:10;;;;;;;;;;;;;;;;;;5032062;28;19913;-79
2020/12/06 09:12:37;;;;;;;;;;;;;;;;;;5016537;28;19918;-79
2020/12/06 09:15:03;;;;;;;;;;;;;;;;;;5017053;28;19956;-76
2020/12/06 09:17:29;;;;;;;;;;;;;;;;;;5013183;28;20054;-77
2020/12/06 09:19:55;;;;;;;;;;;;;;;;;;5029659;28;19910;-76
2020/12/06 09:22:21;;;;;;;;;;;;;;;;;;5016266;28;19916;-78
2020/12/06 09:24:47;;;;;;;;;;;;;;;;;;5037379;28;19940;-78
2020/12/06 09:27:13;;;;;;;;;;;;;;;;;;5033110;28;19918;-78
2020/12/06 09:29:38;;;;;;;;;;;;;;;;;;5019905;28;19913;-77
2020/12/06 09:32:04;;;;;;;;;;;;;;;;;;5030836;28;19917;-78
2020/12/06 09:34:30;;;;;;;;;;;;;;;;;;5045044;28;20377;-77
2020/12/06 09:36:56;;;;;;;;;;;;;;;;;;5053919;28;19916;-78
2020/12/06 09:39:22;;;;;;;;;;;;;;;;;;5040474;28;19921;-78
2020/12/06 09:41:48;;;;;;;;;;;;;;;;;;5018061;28;19909;-78
2020/12/06 09:44:14;;;;;;;;;;;;;;;;;;5021471;28;19910;-80
2020/12/06 09:46:40;;;;;;;;;;;;;;;;;;5048998;28;19945;-77
2020/12/06 09:49:06;;;;;;;;;;;;;;;;;;5034225;28;19917;-77
2020/12/06 09:51:32;;;;;;;;;;;;;;;;;;5032557;28;19917;-78
2020/12/06 09:53:58;;;;;;;;;;;;;;;;;;5034821;28;19917;-77
2020/12/06 09:56:24;;;;;;;;;;;;;;;;;;5051080;28;19944;-78
2020/12/06 09:58:50;;;;;;;;;;;;;;;;;;5051468;28;19910;-78
2020/12/06 10:01:16;;;;;;;;;;;;;;;;;;5032941;28;19929;-77
2020/12/06 10:03:41;;;;;;;;;;;;;;;;;;5016694;28;19910;-78
2020/12/06 10:06:07;;;;;;;;;;;;;;;;;;5016771;28;19914;-77
2020/12/06 10:08:33;;;;;;;;;;;;;;;;;;5016340;28;19920;-77
2020/12/06 10:10:59;;;;;;;;;;;;;;;;;;5022048;28;19910;-77
2020/12/06 10:13:25;;;;;;;;;;;;;;;;;;5023218;28;19925;-77
2020/12/06 10:15:51;;;;;;;;;;;;;;;;;;5033415;28;19921;-78
2020/12/06 10:18:17;;;;;;;;;;;;;;;;;;5032575;28;19984;-78
2020/12/06 10:20:43;;;;;;;;;;;;;;;;;;5035441;28;19935;-78
2020/12/06 10:23:09;;;;;;;;;;;;;;;;;;5034424;28;19916;-78
2020/12/06 10:25:35;;;;;;;;;;;;;;;;;;5031266;28;19909;-78
2020/12/06 10:28:01;;;;;;;;;;;;;;;;;;5014787;28;19914;-78
2020/12/06 10:30:27;;;;;;;;;;;;;;;;;;5019096;28;19921;-77
2020/12/06 10:32:53;;;;;;;;;;;;;;;;;;5018147;28;19913;-76
2020/12/06 10:35:19;;;;;;;;;;;;;;;;;;5023731;28;19916;-78
2020/12/06 10:37:45;;;;;;;;;;;;;;;;;;5018949;28;20563;-78
2020/12/06 10:40:10;;;;;;;;;;;;;;;;;;5019208;28;19909;-78
2020/12/06 10:42:36;;;;;;;;;;;;;;;;;;5019591;28;19909;-78
2020/12/06 10:45:02;;;;;;;;;;;;;;;;;;5028457;28;19905;-76
2020/12/06 10:47:28;;;;;;;;;;;;;;;;;;5021720;28;19910;-77
2020/12/06 10:49:54;;;;;;;;;;;;;;;;;;5014535;28;19916;-77
2020/12/06 10:52:20;;;;;;;;;;;;;;;;;;5026831;28;19924;-78
2020/12/06 10:54:46;;;;;;;;;;;;;;;;;;5049042;28;19916;-76
2020/12/06 10:57:12;;;;;;;;;;;;;;;;;;5032033;28;19917;-77
2020/12/06 10:59:38;;;;;;;;;;;;;;;;;;5042919;28;20011;-77
2020/12/06 11:02:04;;;;;;;;;;;;;;;;;;5009888;28;20037;-77
2020/12/06 11:04:30;;;;;;;;;;;;;;;;;;5011970;28;20283;-77
2020/12/06 11:06:56;;;;;;;;;;;;;;;;;;5018516;28;20284;-76
2020/12/06 11:09:21;;;;;;;;;;;;;;;;;;5029100;28;19910;-78
2020/12/06 11:11:47;;;;;;;;;;;;;;;;;;5019889;28;19913;-77
2020/12/06 11:14:13;;;;;;;;;;;;;;;;;;5014304;28;19963;-77
2020/12/06 11:16:39;;;;;;;;;;;;;;;;;;5016535;28;20324;-77
2020/12/06 11:19:05;;;;;;;;;;;;;;;;;;5030586;28;20328;-77
2020/12/06 11:21:31;;;;;;;;;;;;;;;;;;5019691;28;19913;-77
2020/12/06 11:23:58;;;;;;;;;;;;;;;;;;5017072;28;19914;-77
2020/12/06 11:26:24;;;;;;;;;;;;;;;;;;5015626;28;20438;-77
2020/12/06 11:28:50;;;;;;;;;;;;;;;;;;5014292;28;19941;-75
2020/12/06 11:31:16;;;;;;;;;;;;;;;;;;5016040;28;19969;-76
2020/12/06 11:33:42;;;;;;;;;;;;;;;;;;5014624;28;19949;-76
2020/12/06 11:36:08;;;;;;;;;;;;;;;;;;5014768;28;19917;-78
2020/12/06 11:38:33;;;;;;;;;;;;;;;;;;5015057;28;20283;-77
2020/12/06 11:41:00;;;;;;;;;;;;;;;;;;5030368;28;19909;-76
2020/12/06 11:43:26;;;;;;;;;;;;;;;;;;5026759;28;19959;-78
2020/12/06 11:45:52;;;;;;;;;;;;;;;;;;5031226;28;19917;-78
2020/12/06 11:48:18;;;;;;;;;;;;;;;;;;5027985;28;19973;-77
2020/12/06 11:50:44;;;;;;;;;;;;;;;;;;5049857;28;19904;-76
2020/12/06 11:53:10;;;;;;;;;;;;;;;;;;5031965;28;19964;-77
2020/12/06 11:55:35;;;;;;;;;;;;;;;;;;5041110;28;20395;-77
2020/12/06 11:58:01;;;;;;;;;;;;;;;;;;5021716;28;19916;-76
2020/12/06 12:00:27;;;;;;;;;;;;;;;;;;5042537;28;19936;-77
2020/12/06 12:02:53;;;;;;;;;;;;;;;;;;5022806;28;19920;-77
2020/12/06 12:05:19;;;;;;;;;;;;;;;;;;5030741;28;19921;-78
2020/12/06 12:07:45;;;;;;;;;;;;;;;;;;5047396;28;19944;-77
2020/12/06 12:10:11;;;;;;;;;;;;;;;;;;5030513;28;19932;-75
2020/12/06 12:12:37;;;;;;;;;;;;;;;;;;5038380;28;19922;-75
2020/12/06 12:15:04;;;;;;;;;;;;;;;;;;5059222;28;19917;-76
2020/12/06 12:17:31;;;;;;;;;;;;;;;;;;5036928;28;19944;-77
2020/12/06 12:19:57;;;;;;;;;;;;;;;;;;5032846;28;19920;-77
2020/12/06 12:22:24;;;;;;;;;;;;;;;;;;5038156;28;20000;-77
2020/12/06 12:24:49;;;;;;;;;;;;;;;;;;5020350;28;19914;-77
2020/12/06 12:27:15;;;;;;;;;;;;;;;;;;5022398;28;19916;-76
2020/12/06 12:29:41;;;;;;;;;;;;;;;;;;5015197;28;20280;-76
2020/12/06 12:32:07;;;;;;;;;;;;;;;;;;5015692;28;19928;-76
2020/12/06 12:34:33;;;;;;;;;;;;;;;;;;5035409;28;19916;-77
2020/12/06 12:36:59;;;;;;;;;;;;;;;;;;5033844;28;19909;-76
2020/12/06 12:39:25;;;;;;;;;;;;;;;;;;5014911;28;19920;-76
2020/12/06 12:41:51;;;;;;;;;;;;;;;;;;5031423;28;19909;-76
2020/12/06 12:44:17;;;;;;;;;;;;;;;;;;5033294;28;19975;-78
2020/12/06 12:46:43;;;;;;;;;;;;;;;;;;5034573;28;20378;-77
2020/12/06 12:49:09;;;;;;;;;;;;;;;;;;5046254;28;19916;-77
2020/12/06 12:51:35;;;;;;;;;;;;;;;;;;5015690;28;20354;-77
2020/12/06 12:54:01;;;;;;;;;;;;;;;;;;5015158;28;20000;-77
2020/12/06 12:56:26;;;;;;;;;;;;;;;;;;5015151;28;19910;-77
2020/12/06 12:58:52;;;;;;;;;;;;;;;;;;5014960;28;19909;-78
2020/12/06 13:01:18;;;;;;;;;;;;;;;;;;5017949;28;19918;-77
2020/12/06 13:03:44;;;;;;;;;;;;;;;;;;5034232;28;19925;-78
2020/12/06 13:06:10;;;;;;;;;;;;;;;;;;5031177;28;19921;-78
2020/12/06 13:08:36;;;;;;;;;;;;;;;;;;5020828;28;20320;-78
2020/12/06 13:11:02;;;;;;;;;;;;;;;;;;5033586;28;19910;-77
2020/12/06 13:13:28;;;;;;;;;;;;;;;;;;5024264;28;19921;-78
2020/12/06 13:15:54;;;;;;;;;;;;;;;;;;5037803;28;19909;-77
2020/12/06 13:18:20;;;;;;;;;;;;;;;;;;5022791;28;19916;-77
2020/12/06 13:20:46;;;;;;;;;;;;;;;;;;5025062;28;19920;-77
2020/12/06 13:23:12;;;;;;;;;;;;;;;;;;5052530;28;20040;-77
2020/12/06 13:25:38;;;;;;;;;;;;;;;;;;5019302;28;20160;-77
2020/12/06 13:28:04;;;;;;;;;;;;;;;;;;5020611;28;19984;-77
2020/12/06 13:30:30;;;;;;;;;;;;;;;;;;5048126;28;19914;-77
2020/12/06 13:32:55;;;;;;;;;;;;;;;;;;5028044;28;19920;-77
2020/12/06 13:35:21;;;;;;;;;;;;;;;;;;5019413;28;19963;-78
2020/12/06 13:37:47;;;;;;;;;;;;;;;;;;5020167;28;19925;-77
2020/12/06 13:40:13;;;;;;;;;;;;;;;;;;5023647;28;19916;-77
2020/12/06 13:42:39;;;;;;;;;;;;;;;;;;5022570;28;19917;-77
2020/12/06 13:45:05;;;;;;;;;;;;;;;;;;5026731;28;19909;-76
2020/12/06 13:47:31;;;;;;;;;;;;;;;;;;5021052;28;19909;-77
2020/12/06 13:49:57;;;;;;;;;;;;;;;;;;5014359;28;19967;-76
2020/12/06 13:52:23;;;;;;;;;;;;;;;;;;5015175;28;19964;-77
2020/12/06 13:54:49;;;;;;;;;;;;;;;;;;5032421;28;19971;-76
2020/12/06 13:57:15;;;;;;;;;;;;;;;;;;5037503;28;19914;-77
2020/12/06 13:59:41;;;;;;;;;;;;;;;;;;5032227;28;20012;-78
2020/12/06 14:02:07;;;;;;;;;;;;;;;;;;5028768;28;19971;-77
2020/12/06 14:04:33;;;;;;;;;;;;;;;;;;5047167;28;19913;-77
2020/12/06 14:06:59;;;;;;;;;;;;;;;;;;5032319;28;19996;-77
2020/12/06 14:09:24;;;;;;;;;;;;;;;;;;5028020;28;19917;-78
2020/12/06 14:11:50;;;;;;;;;;;;;;;;;;5035373;28;19916;-78
2020/12/06 14:14:16;;;;;;;;;;;;;;;;;;5030876;28;20012;-78
2020/12/06 14:16:42;;;;;;;;;;;;;;;;;;5020397;28;19910;-76
2020/12/06 14:19:08;;;;;;;;;;;;;;;;;;5053204;28;19982;-78
2020/12/06 14:21:34;;;;;;;;;;;;;;;;;;5029840;28;19928;-77
2020/12/06 14:24:00;;;;;;;;;;;;;;;;;;5047891;28;19917;-77
2020/12/06 14:26:26;;;;;;;;;;;;;;;;;;5027034;28;20455;-77
2020/12/06 14:28:52;;;;;;;;;;;;;;;;;;5011540;28;19948;-78
2020/12/06 14:31:18;;;;;;;;;;;;;;;;;;5037760;28;19917;-78
2020/12/06 14:33:44;;;;;;;;;;;;;;;;;;5031174;28;19917;-77
2020/12/06 14:36:10;;;;;;;;;;;;;;;;;;5042925;28;19920;-78
2020/12/06 14:38:36;;;;;;;;;;;;;;;;;;5015253;28;19913;-79
2020/12/06 14:41:02;;;;;;;;;;;;;;;;;;5011386;28;19972;-78
2020/12/06 14:43:28;;;;;;;;;;;;;;;;;;5020002;28;19956;-77
2020/12/06 14:45:54;;;;;;;;;;;;;;;;;;5030827;28;19898;-77
2020/12/06 14:48:20;;;;;;;;;;;;;;;;;;5041669;28;20438;-78
2020/12/06 14:50:46;;;;;;;;;;;;;;;;;;5011311;28;19909;-78
2020/12/06 14:53:12;;;;;;;;;;;;;;;;;;5011957;28;19995;-77
2020/12/06 14:55:38;;;;;;;;;;;;;;;;;;5027298;28;20348;-78
2020/12/06 14:58:04;;;;;;;;;;;;;;;;;;5009168;28;19909;-78
2020/12/06 15:00:29;;;;;;;;;;;;;;;;;;5024198;28;19909;-79
2020/12/06 15:02:55;;;;;;;;;;;;;;;;;;5012305;28;19957;-77
2020/12/06 15:05:21;;;;;;;;;;;;;;;;;;5010701;28;19909;-77
2020/12/06 15:07:47;;;;;;;;;;;;;;;;;;5015853;28;19921;-78
2020/12/06 15:10:13;;;;;;;;;;;;;;;;;;5013289;28;20004;-77
2020/12/06 15:12:39;;;;;;;;;;;;;;;;;;5023455;28;20059;-78
2020/12/06 15:15:05;;;;;;;;;;;;;;;;;;5031067;28;20399;-78
2020/12/06 15:17:31;;;;;;;;;;;;;;;;;;5011620;28;20323;-77
2020/12/06 15:19:57;;;;;;;;;;;;;;;;;;5008671;28;19972;-77
2020/12/06 15:22:23;;;;;;;;;;;;;;;;;;5024923;28;20003;-77
2020/12/06 15:24:49;;;;;;;;;;;;;;;;;;5010598;28;19909;-76
2020/12/06 15:27:15;;;;;;;;;;;;;;;;;;5028024;28;19909;-77
2020/12/06 15:29:41;;;;;;;;;;;;;;;;;;5028020;28;19909;-76
2020/12/06 15:32:07;;;;;;;;;;;;;;;;;;5048529;28;19925;-77
2020/12/06 15:34:33;;;;;;;;;;;;;;;;;;5055329;28;19913;-77
2020/12/06 15:36:58;;;;;;;;;;;;;;;;;;5041147;28;20490;-76
2020/12/06 15:39:24;;;;;;;;;;;;;;;;;;5015129;28;19914;-76
2020/12/06 15:41:50;;;;;;;;;;;;;;;;;;5037895;28;19913;-78
2020/12/06 15:44:16;;;;;;;;;;;;;;;;;;5029012;28;19920;-76
2020/12/06 15:46:42;;;;;;;;;;;;;;;;;;5018541;28;19916;-78
2020/12/06 15:49:08;;;;;;;;;;;;;;;;;;5009891;28;19945;-77
2020/12/06 15:51:34;;;;;;;;;;;;;;;;;;5013840;28;19963;-76
2020/12/06 15:54:00;;;;;;;;;;;;;;;;;;5013794;28;20491;-77
2020/12/06 15:56:27;;;;;;;;;;;;;;;;;;5032822;28;19941;-76
2020/12/06 15:58:53;;;;;;;;;;;;;;;;;;5013851;28;19917;-78
2020/12/06 16:01:19;;;;;;;;;;;;;;;;;;5009865;28;19977;-77
2020/12/06 16:03:45;;;;;;;;;;;;;;;;;;5012901;28;19980;-77
2020/12/06 16:06:11;;;;;;;;;;;;;;;;;;5012905;28;20288;-76
2020/12/06 16:08:37;;;;;;;;;;;;;;;;;;5011887;28;20387;-76
2020/12/06 16:11:03;;;;;;;;;;;;;;;;;;5007925;28;19948;-77
2020/12/06 16:13:29;;;;;;;;;;;;;;;;;;5027521;28;19933;-78
2020/12/06 16:15:55;;;;;;;;;;;;;;;;;;5015573;28;19955;-76
2020/12/06 16:18:21;;;;;;;;;;;;;;;;;;5027562;28;20008;-77
2020/12/06 16:20:46;;;;;;;;;;;;;;;;;;5015669;28;20350;-77
2020/12/06 16:23:12;;;;;;;;;;;;;;;;;;5010026;28;19952;-75
2020/12/06 16:25:38;;;;;;;;;;;;;;;;;;5012059;28;19967;-74
2020/12/06 16:28:04;;;;;;;;;;;;;;;;;;5025588;28;20299;-77
2020/12/06 16:30:30;;;;;;;;;;;;;;;;;;5025945;28;19960;-75
2020/12/06 16:32:56;;;;;;;;;;;;;;;;;;5010574;28;19913;-75
2020/12/06 16:35:22;;;;;;;;;;;;;;;;;;5010643;28;20494;-76